createdAt,value
2023-01-19T00:00:07.636Z,505.00
2023-01-19T00:01:07.571Z,506.00
2023-01-19T00:02:07.526Z,505.00
2023-01-19T00:03:07.554Z,503.00
2023-01-19T00:04:07.486Z,506.00
2023-01-19T00:05:07.462Z,507.00
2023-01-19T00:06:07.530Z,503.00
2023-01-19T00:07:07.456Z,502.00
2023-01-19T00:54:43.034Z,500.00
2023-01-19T00:55:43.992Z,500.00
2023-01-19T00:56:43.986Z,500.00
2023-01-19T00:57:43.960Z,500.00
2023-01-19T00:58:43.941Z,500.00
2023-01-19T00:59:43.939Z,500.00
2023-01-19T01:00:43.940Z,441.00
2023-01-19T01:01:45.866Z,417.00
2023-01-19T01:02:44.206Z,410.00
2023-01-19T01:03:43.874Z,419.00
2023-01-19T01:04:43.866Z,436.00
2023-01-19T01:05:43.847Z,455.00
2023-01-19T01:06:43.838Z,481.00
2023-01-19T01:07:43.816Z,500.00
2023-01-19T01:08:43.801Z,500.00
2023-01-19T01:09:43.790Z,500.00
2023-01-19T01:10:43.806Z,500.00
2023-01-19T01:11:43.755Z,504.00
2023-01-19T01:12:57.740Z,500.00
2023-01-19T01:13:43.720Z,501.00
2023-01-19T01:14:43.700Z,500.00
2023-01-19T01:15:43.700Z,489.00
2023-01-19T01:16:43.744Z,482.00
2023-01-19T01:17:43.666Z,468.00
2023-01-19T01:18:43.631Z,458.00
2023-01-19T01:19:43.609Z,500.00
2023-01-19T01:20:43.593Z,502.00
2023-01-19T01:21:43.578Z,503.00
2023-01-19T01:22:43.569Z,506.00
2023-01-19T01:23:43.556Z,504.00
2023-01-19T01:24:43.544Z,506.00
2023-01-19T01:25:43.530Z,500.00
2023-01-19T01:26:43.546Z,505.00
2023-01-19T01:27:43.498Z,500.00
2023-01-19T01:28:43.533Z,501.00
2023-01-19T01:29:43.450Z,500.00
2023-01-19T01:30:43.580Z,500.00
2023-01-19T01:31:43.460Z,503.00
2023-01-19T01:32:43.422Z,502.00
2023-01-19T01:33:43.355Z,506.00
2023-01-19T01:34:43.335Z,501.00
2023-01-19T01:35:43.302Z,506.00
2023-01-19T01:36:43.275Z,500.00
2023-01-19T01:37:43.252Z,501.00
2023-01-19T01:38:43.225Z,502.00
2023-01-19T01:39:43.202Z,502.00
2023-01-19T01:40:43.171Z,502.00
2023-01-19T01:41:43.153Z,501.00
2023-01-19T01:42:43.233Z,500.00
2023-01-19T01:43:43.112Z,500.00
2023-01-19T01:44:43.087Z,501.00
2023-01-19T01:45:43.086Z,500.00
2023-01-19T01:46:43.049Z,501.00
2023-01-19T01:47:43.015Z,500.00
2023-01-19T01:48:43.001Z,502.00
2023-01-19T01:49:42.978Z,502.00
2023-01-19T01:50:42.957Z,507.00
2023-01-19T01:51:42.935Z,500.00
2023-01-19T01:52:42.918Z,504.00
2023-01-19T01:53:42.898Z,505.00
2023-01-19T01:54:42.872Z,506.00
2023-01-19T01:55:42.862Z,507.00
2023-01-19T01:56:42.841Z,506.00
2023-01-19T01:57:42.819Z,505.00
2023-01-19T01:58:42.834Z,505.00
2023-01-19T01:59:42.791Z,510.00
2023-01-19T02:00:42.840Z,504.00
2023-01-19T02:01:42.861Z,505.00
2023-01-19T02:02:42.738Z,505.00
2023-01-19T02:03:42.731Z,504.00
2023-01-19T02:04:42.711Z,506.00
2023-01-19T02:05:42.688Z,501.00
2023-01-19T02:06:42.674Z,500.00
2023-01-19T02:07:42.660Z,505.00
2023-01-19T02:08:42.650Z,504.00
2023-01-19T02:09:42.626Z,505.00
2023-01-19T02:10:42.603Z,503.00
2023-01-19T02:11:42.596Z,504.00
2023-01-19T02:12:42.584Z,504.00
2023-01-19T02:13:42.555Z,508.00
2023-01-19T02:14:42.569Z,513.00
2023-01-19T02:15:42.516Z,507.00
2023-01-19T02:16:42.561Z,512.00
2023-01-19T02:17:42.475Z,506.00
2023-01-19T02:18:42.461Z,502.00
2023-01-19T02:19:42.432Z,508.00
2023-01-19T02:20:42.422Z,505.00
2023-01-19T02:21:42.406Z,504.00
2023-01-19T02:22:42.389Z,508.00
2023-01-19T02:23:42.401Z,508.00
2023-01-19T02:24:42.360Z,504.00
2023-01-19T02:25:42.348Z,503.00
2023-01-19T02:26:42.337Z,504.00
2023-01-19T02:27:42.333Z,505.00
2023-01-19T02:28:42.322Z,503.00
2023-01-19T02:29:42.301Z,506.00
2023-01-19T02:30:42.359Z,506.00
2023-01-19T02:31:42.266Z,505.00
2023-01-19T02:32:42.253Z,502.00
2023-01-19T02:33:42.237Z,506.00
2023-01-19T02:34:42.238Z,511.00
2023-01-19T02:35:42.221Z,508.00
2023-01-19T02:36:42.199Z,503.00
2023-01-19T02:37:42.188Z,509.00
2023-01-19T02:38:42.172Z,504.00
2023-01-19T02:39:42.169Z,508.00
2023-01-19T02:40:42.183Z,507.00
2023-01-19T02:41:42.139Z,508.00
2023-01-19T02:42:42.114Z,506.00
2023-01-19T02:43:42.097Z,504.00
2023-01-19T02:44:42.084Z,507.00
2023-01-19T02:45:42.112Z,505.00
2023-01-19T02:46:42.133Z,505.00
2023-01-19T02:47:42.039Z,507.00
2023-01-19T02:48:42.033Z,505.00
2023-01-19T02:49:42.022Z,504.00
2023-01-19T02:50:42.014Z,509.00
2023-01-19T02:51:42.000Z,500.00
2023-01-19T02:52:41.984Z,506.00
2023-01-19T02:53:41.970Z,509.00
2023-01-19T02:54:41.973Z,506.00
2023-01-19T02:55:41.940Z,509.00
2023-01-19T02:56:41.934Z,504.00
2023-01-19T02:57:41.922Z,502.00
2023-01-19T02:58:41.915Z,510.00
2023-01-19T02:59:41.922Z,505.00
2023-01-19T03:00:41.891Z,507.00
2023-01-19T03:01:41.988Z,502.00
2023-01-19T03:02:41.906Z,504.00
2023-01-19T03:03:41.861Z,505.00
2023-01-19T03:04:41.844Z,503.00
2023-01-19T03:05:41.828Z,502.00
2023-01-19T03:06:41.813Z,505.00
2023-01-19T03:07:41.820Z,507.00
2023-01-19T03:08:41.798Z,507.00
2023-01-19T03:09:41.781Z,509.00
2023-01-19T03:10:41.760Z,506.00
2023-01-19T03:11:41.754Z,508.00
2023-01-19T03:12:41.733Z,506.00
2023-01-19T03:13:41.743Z,505.00
2023-01-19T03:14:41.707Z,505.00
2023-01-19T03:15:41.739Z,505.00
2023-01-19T03:16:42.192Z,508.00
2023-01-19T03:17:41.647Z,506.00
2023-01-19T03:18:41.666Z,507.00
2023-01-19T03:19:41.636Z,508.00
2023-01-19T03:20:41.608Z,505.00
2023-01-19T03:21:41.595Z,505.00
2023-01-19T03:22:41.581Z,506.00
2023-01-19T03:23:41.559Z,505.00
2023-01-19T03:24:41.544Z,502.00
2023-01-19T03:25:41.518Z,504.00
2023-01-19T03:26:41.510Z,506.00
2023-01-19T03:27:41.481Z,506.00
2023-01-19T03:28:41.460Z,509.00
2023-01-19T03:29:41.448Z,501.00
2023-01-19T03:30:41.500Z,504.00
2023-01-19T03:31:41.412Z,506.00
2023-01-19T03:32:41.406Z,505.00
2023-01-19T03:33:41.384Z,507.00
2023-01-19T03:34:41.382Z,504.00
2023-01-19T03:35:41.343Z,505.00
2023-01-19T03:36:41.322Z,502.00
2023-01-19T03:37:41.309Z,510.00
2023-01-19T03:38:41.292Z,508.00
2023-01-19T03:39:41.308Z,503.00
2023-01-19T03:40:41.242Z,506.00
2023-01-19T03:41:41.210Z,507.00
2023-01-19T03:42:41.191Z,507.00
2023-01-19T03:43:41.179Z,508.00
2023-01-19T03:44:41.152Z,504.00
2023-01-19T03:45:41.123Z,506.00
2023-01-19T03:46:41.108Z,507.00
2023-01-19T03:47:41.090Z,509.00
2023-01-19T03:48:41.068Z,508.00
2023-01-19T03:49:41.072Z,508.00
2023-01-19T03:50:41.064Z,507.00
2023-01-19T03:51:41.006Z,509.00
2023-01-19T03:52:40.999Z,504.00
2023-01-19T03:53:40.974Z,503.00
2023-01-19T03:54:40.966Z,508.00
2023-01-19T03:55:40.923Z,505.00
2023-01-19T03:56:41.639Z,509.00
2023-01-19T03:57:40.890Z,514.00
2023-01-19T03:58:40.864Z,505.00
2023-01-19T03:59:40.845Z,510.00
2023-01-19T04:00:40.816Z,509.00
2023-01-19T04:01:40.968Z,508.00
2023-01-19T04:02:40.852Z,508.00
2023-01-19T04:03:40.757Z,508.00
2023-01-19T04:04:40.776Z,509.00
2023-01-19T04:05:40.719Z,505.00
2023-01-19T04:06:40.851Z,504.00
2023-01-19T04:07:40.729Z,505.00
2023-01-19T04:08:40.664Z,509.00
2023-01-19T04:09:40.639Z,508.00
2023-01-19T04:10:40.629Z,510.00
2023-01-19T04:11:40.623Z,511.00
2023-01-19T04:12:40.615Z,512.00
2023-01-19T04:13:40.595Z,510.00
2023-01-19T04:14:40.557Z,509.00
2023-01-19T04:15:40.599Z,508.00
2023-01-19T04:16:40.531Z,509.00
2023-01-19T04:17:40.511Z,508.00
2023-01-19T04:18:40.493Z,508.00
2023-01-19T04:19:40.516Z,504.00
2023-01-19T04:20:40.466Z,508.00
2023-01-19T04:21:40.446Z,507.00
2023-01-19T04:22:40.456Z,507.00
2023-01-19T04:23:40.421Z,508.00
2023-01-19T04:24:40.414Z,509.00
2023-01-19T04:25:40.420Z,506.00
2023-01-19T04:26:40.376Z,511.00
2023-01-19T04:27:40.368Z,508.00
2023-01-19T04:28:40.343Z,510.00
2023-01-19T04:29:40.332Z,506.00
2023-01-19T04:30:40.332Z,512.00
2023-01-19T04:31:40.300Z,510.00
2023-01-19T04:32:40.274Z,512.00
2023-01-19T04:33:40.258Z,508.00
2023-01-19T04:34:40.235Z,507.00
2023-01-19T04:35:40.221Z,512.00
2023-01-19T04:36:40.197Z,505.00
2023-01-19T04:37:40.184Z,508.00
2023-01-19T04:38:40.184Z,508.00
2023-01-19T04:39:40.144Z,505.00
2023-01-19T04:40:40.124Z,513.00
2023-01-19T04:41:40.112Z,508.00
2023-01-19T04:42:40.098Z,507.00
2023-01-19T04:43:40.084Z,513.00
2023-01-19T04:44:40.122Z,510.00
2023-01-19T04:45:40.069Z,510.00
2023-01-19T04:46:40.086Z,509.00
2023-01-19T04:47:40.024Z,510.00
2023-01-19T04:48:41.412Z,505.00
2023-01-19T04:49:39.997Z,505.00
2023-01-19T04:50:39.997Z,507.00
2023-01-19T04:51:39.961Z,508.00
2023-01-19T04:52:39.965Z,508.00
2023-01-19T04:53:39.943Z,512.00
2023-01-19T04:54:40.011Z,513.00
2023-01-19T04:55:39.900Z,506.00
2023-01-19T04:56:39.894Z,509.00
2023-01-19T04:57:39.881Z,511.00
2023-01-19T04:58:39.864Z,516.00
2023-01-19T04:59:39.839Z,515.00
2023-01-19T05:00:39.829Z,511.00
2023-01-19T05:01:39.899Z,514.00
2023-01-19T05:02:39.886Z,514.00
2023-01-19T05:03:39.809Z,507.00
2023-01-19T05:04:39.770Z,510.00
2023-01-19T05:05:39.746Z,511.00
2023-01-19T05:06:39.749Z,512.00
2023-01-19T05:07:39.719Z,511.00
2023-01-19T05:08:39.714Z,513.00
2023-01-19T05:09:39.694Z,513.00
2023-01-19T05:10:39.704Z,508.00
2023-01-19T05:11:39.653Z,510.00
2023-01-19T05:12:39.639Z,512.00
2023-01-19T05:13:39.638Z,510.00
2023-01-19T05:14:39.639Z,513.00
2023-01-19T05:15:39.618Z,512.00
2023-01-19T05:16:39.572Z,512.00
2023-01-19T05:17:39.562Z,508.00
2023-01-19T05:18:39.536Z,511.00
2023-01-19T05:19:39.525Z,515.00
2023-01-19T05:20:39.584Z,510.00
2023-01-19T05:21:39.501Z,509.00
2023-01-19T05:22:39.487Z,513.00
2023-01-19T05:23:39.458Z,514.00
2023-01-19T05:24:39.462Z,515.00
2023-01-19T05:25:39.439Z,510.00
2023-01-19T05:26:39.456Z,510.00
2023-01-19T05:27:39.407Z,509.00
2023-01-19T05:28:39.385Z,510.00
2023-01-19T05:29:39.377Z,511.00
2023-01-19T05:30:39.387Z,510.00
2023-01-19T05:31:39.434Z,514.00
2023-01-19T05:32:39.334Z,508.00
2023-01-19T05:33:39.319Z,512.00
2023-01-19T05:34:39.307Z,511.00
2023-01-19T05:35:39.296Z,511.00
2023-01-19T05:36:39.292Z,514.00
2023-01-19T05:37:39.266Z,509.00
2023-01-19T05:38:39.269Z,512.00
2023-01-19T05:39:39.245Z,515.00
2023-01-19T05:40:39.240Z,510.00
2023-01-19T05:41:39.228Z,511.00
2023-01-19T05:42:39.229Z,515.00
2023-01-19T05:43:39.188Z,516.00
2023-01-19T05:44:39.172Z,511.00
2023-01-19T05:45:39.159Z,515.00
2023-01-19T05:46:39.221Z,513.00
2023-01-19T05:47:39.143Z,511.00
2023-01-19T05:48:39.135Z,508.00
2023-01-19T05:49:39.121Z,516.00
2023-01-19T05:50:39.098Z,513.00
2023-01-19T05:51:39.085Z,514.00
2023-01-19T05:52:39.074Z,509.00
2023-01-19T05:53:39.065Z,511.00
2023-01-19T05:54:39.038Z,512.00
2023-01-19T05:55:39.028Z,511.00
2023-01-19T05:56:39.005Z,514.00
2023-01-19T05:57:38.989Z,514.00
2023-01-19T05:58:39.073Z,513.00
2023-01-19T05:59:38.949Z,512.00
2023-01-19T06:00:38.936Z,514.00
2023-01-19T06:01:40.314Z,517.00
2023-01-19T06:02:38.961Z,518.00
2023-01-19T06:03:38.944Z,516.00
2023-01-19T06:04:38.911Z,512.00
2023-01-19T06:05:38.882Z,510.00
2023-01-19T06:06:38.865Z,516.00
2023-01-19T06:07:39.687Z,516.00
2023-01-19T06:08:38.810Z,514.00
2023-01-19T06:09:38.795Z,512.00
2023-01-19T06:10:38.770Z,512.00
2023-01-19T06:11:38.749Z,512.00
2023-01-19T06:12:38.725Z,513.00
2023-01-19T06:13:40.673Z,513.00
2023-01-19T06:14:38.708Z,516.00
2023-01-19T06:15:38.663Z,515.00
2023-01-19T06:16:38.767Z,513.00
2023-01-19T06:17:38.623Z,514.00
2023-01-19T06:18:38.741Z,515.00
2023-01-19T06:19:38.591Z,515.00
2023-01-19T06:20:38.580Z,510.00
2023-01-19T06:21:38.568Z,515.00
2023-01-19T06:22:38.528Z,513.00
2023-01-19T06:23:38.694Z,552.00
2023-01-19T06:24:38.507Z,815.00
2023-01-19T06:25:38.481Z,998.00
2023-01-19T06:26:38.486Z,870.00
2023-01-19T06:27:38.449Z,770.00
2023-01-19T06:28:38.719Z,736.00
2023-01-19T06:29:38.416Z,736.00
2023-01-19T06:30:38.481Z,719.00
2023-01-19T06:31:38.434Z,709.00
2023-01-19T06:32:38.377Z,695.00
2023-01-19T06:33:38.386Z,675.00
2023-01-19T06:34:38.351Z,670.00
2023-01-19T06:35:38.338Z,663.00
2023-01-19T06:36:38.333Z,662.00
2023-01-19T06:37:38.698Z,661.00
2023-01-19T06:38:38.301Z,661.00
2023-01-19T06:39:38.700Z,661.00
2023-01-19T06:40:38.261Z,657.00
2023-01-19T06:41:38.248Z,658.00
2023-01-19T06:42:38.268Z,661.00
2023-01-19T06:43:38.215Z,661.00
2023-01-19T06:44:38.701Z,662.00
2023-01-19T06:45:38.228Z,661.00
2023-01-19T06:46:38.216Z,658.00
2023-01-19T06:47:38.203Z,663.00
2023-01-19T06:48:38.154Z,672.00
2023-01-19T06:49:38.206Z,686.00
2023-01-19T06:50:38.161Z,685.00
2023-01-19T06:51:38.164Z,694.00
2023-01-19T06:52:38.135Z,698.00
2023-01-19T06:53:38.146Z,713.00
2023-01-19T06:54:38.605Z,741.00
2023-01-19T06:56:41.299Z,750.00
2023-01-19T06:57:38.084Z,751.00
2023-01-19T06:58:38.110Z,755.00
2023-01-19T06:59:39.318Z,758.00
2023-01-19T07:00:38.250Z,768.00
2023-01-19T07:01:38.251Z,774.00
2023-01-19T07:02:38.218Z,767.00
2023-01-19T07:03:38.210Z,775.00
2023-01-19T07:04:38.008Z,762.00
2023-01-19T07:05:37.984Z,764.00
2023-01-19T07:07:38.215Z,760.00
2023-01-19T07:08:37.947Z,762.00
2023-01-19T07:09:37.935Z,762.00
2023-01-19T07:11:26.759Z,762.00
2023-01-19T07:11:37.903Z,760.00
2023-01-19T07:13:38.127Z,760.00
2023-01-19T07:14:41.074Z,765.00
2023-01-19T07:15:37.855Z,759.00
2023-01-19T07:16:37.853Z,761.00
2023-01-19T07:17:38.224Z,760.00
2023-01-19T07:18:37.885Z,761.00
2023-01-19T07:19:37.773Z,758.00
2023-01-19T07:20:37.754Z,750.00
2023-01-19T07:21:37.753Z,748.00
2023-01-19T07:22:37.773Z,738.00
2023-01-19T07:23:37.692Z,740.00
2023-01-19T07:24:37.682Z,735.00
2023-01-19T07:25:37.651Z,730.00
2023-01-19T07:26:37.704Z,734.00
2023-01-19T07:27:37.686Z,726.00
2023-01-19T07:28:38.610Z,719.00
2023-01-19T07:29:37.754Z,726.00
2023-01-19T07:30:37.666Z,723.00
2023-01-19T07:31:37.671Z,729.00
2023-01-19T07:32:38.046Z,725.00
2023-01-19T07:33:37.527Z,720.00
2023-01-19T07:34:37.536Z,717.00
2023-01-19T07:35:37.472Z,722.00
2023-01-19T07:36:37.480Z,712.00
2023-01-19T07:37:37.793Z,709.00
2023-01-19T07:38:37.426Z,702.00
2023-01-19T07:39:37.980Z,709.00
2023-01-19T07:40:37.464Z,704.00
2023-01-19T07:42:09.132Z,704.00
2023-01-19T07:42:37.755Z,705.00
2023-01-19T07:43:38.201Z,705.00
2023-01-19T07:44:37.322Z,708.00
2023-01-19T07:45:37.892Z,713.00
2023-01-19T07:46:37.501Z,727.00
2023-01-19T07:47:37.329Z,712.00
2023-01-19T07:48:37.232Z,692.00
2023-01-19T07:49:37.199Z,700.00
2023-01-19T07:50:37.329Z,696.00
2023-01-19T07:51:37.186Z,687.00
2023-01-19T07:52:37.137Z,682.00
2023-01-19T07:53:53.036Z,699.00
2023-01-19T07:54:37.269Z,700.00
2023-01-19T07:55:37.049Z,701.00
2023-01-19T07:57:37.050Z,700.00
2023-01-19T07:59:38.167Z,700.00
2023-01-19T08:00:36.961Z,701.00
2023-01-19T08:01:39.177Z,686.00
2023-01-19T08:02:36.904Z,700.00
2023-01-19T08:03:37.265Z,689.00
2023-01-19T08:04:36.910Z,673.00
2023-01-19T08:05:37.819Z,664.00
2023-01-19T08:06:36.873Z,685.00
2023-01-19T08:07:36.786Z,665.00
2023-01-19T08:08:36.763Z,665.00
2023-01-19T08:09:36.854Z,658.00
2023-01-19T08:10:36.845Z,664.00
2023-01-19T08:11:36.678Z,664.00
2023-01-19T08:12:37.777Z,663.00
2023-01-19T08:13:36.779Z,661.00
2023-01-19T08:14:36.589Z,660.00
2023-01-19T08:15:36.612Z,661.00
2023-01-19T08:16:36.512Z,661.00
2023-01-19T08:17:36.767Z,655.00
2023-01-19T08:18:36.501Z,659.00
2023-01-19T08:19:36.473Z,656.00
2023-01-19T08:20:36.461Z,653.00
2023-01-19T08:21:36.757Z,653.00
2023-01-19T08:22:36.416Z,652.00
2023-01-19T08:23:36.836Z,656.00
2023-01-19T08:24:36.340Z,654.00
2023-01-19T08:25:36.320Z,650.00
2023-01-19T08:26:37.270Z,653.00
2023-01-19T08:27:36.245Z,655.00
2023-01-19T08:28:36.267Z,650.00
2023-01-19T08:29:37.180Z,645.00
2023-01-19T08:30:36.203Z,647.00
2023-01-19T08:31:37.260Z,648.00
2023-01-19T08:32:37.093Z,649.00
2023-01-19T08:33:36.072Z,648.00
2023-01-19T08:34:36.269Z,650.00
2023-01-19T08:35:39.256Z,646.00
2023-01-19T08:36:37.008Z,647.00
2023-01-19T08:37:35.960Z,647.00
2023-01-19T08:38:36.326Z,646.00
2023-01-19T08:39:35.897Z,653.00
2023-01-19T08:40:36.899Z,657.00
2023-01-19T08:41:35.880Z,680.00
2023-01-19T08:42:35.877Z,688.00
2023-01-19T08:43:36.281Z,680.00
2023-01-19T08:44:37.887Z,708.00
2023-01-19T08:45:36.775Z,711.00
2023-01-19T08:46:35.805Z,712.00
2023-01-19T08:47:35.812Z,725.00
2023-01-19T08:48:38.685Z,751.00
2023-01-19T08:49:35.810Z,714.00
2023-01-19T08:50:35.678Z,734.00
2023-01-19T08:51:35.633Z,776.00
2023-01-19T08:52:35.623Z,828.00
2023-01-19T08:53:35.588Z,916.00
2023-01-19T08:54:35.810Z,922.00
2023-01-19T08:55:35.543Z,943.00
2023-01-19T08:56:35.493Z,946.00
2023-01-19T08:57:35.501Z,965.00
2023-01-19T08:58:35.445Z,988.00
2023-01-19T08:59:35.757Z,891.00
2023-01-19T09:00:35.391Z,805.00
2023-01-19T09:01:35.436Z,779.00
2023-01-19T09:02:35.883Z,870.00
2023-01-19T09:03:35.322Z,938.00
2023-01-19T09:04:35.751Z,947.00
2023-01-19T09:05:35.275Z,938.00
2023-01-19T09:06:35.257Z,923.00
2023-01-19T09:07:35.765Z,922.00
2023-01-19T09:08:35.210Z,926.00
2023-01-19T09:09:35.252Z,934.00
2023-01-19T09:10:35.732Z,925.00
2023-01-19T09:11:35.170Z,945.00
2023-01-19T09:12:35.253Z,950.00
2023-01-19T09:13:35.087Z,961.00
2023-01-19T09:14:35.261Z,979.00
2023-01-19T09:15:35.048Z,983.00
2023-01-19T09:16:35.016Z,984.00
2023-01-19T09:17:35.292Z,1002.00
2023-01-19T09:18:34.962Z,1014.00
2023-01-19T09:19:35.281Z,1020.00
2023-01-19T09:20:34.920Z,1028.00
2023-01-19T09:21:34.897Z,1033.00
2023-01-19T09:22:35.290Z,1057.00
2023-01-19T09:23:34.846Z,1058.00
2023-01-19T09:24:34.815Z,1075.00
2023-01-19T09:25:34.803Z,1090.00
2023-01-19T09:26:34.854Z,1099.00
2023-01-19T09:27:34.847Z,1115.00
2023-01-19T09:28:34.746Z,1117.00
2023-01-19T09:29:34.689Z,1129.00
2023-01-19T09:30:34.707Z,1136.00
2023-01-19T09:31:34.691Z,1154.00
2023-01-19T09:32:34.606Z,1164.00
2023-01-19T09:33:34.573Z,1163.00
2023-01-19T09:34:34.552Z,1176.00
2023-01-19T09:35:34.770Z,1147.00
2023-01-19T09:36:34.511Z,1090.00
2023-01-19T09:37:34.465Z,776.00
2023-01-19T09:38:34.466Z,713.00
2023-01-19T09:39:34.512Z,688.00
2023-01-19T09:40:35.758Z,659.00
2023-01-19T09:41:34.408Z,684.00
2023-01-19T09:42:34.421Z,725.00
2023-01-19T09:43:34.391Z,715.00
2023-01-19T09:44:34.407Z,696.00
2023-01-19T09:45:34.775Z,675.00
2023-01-19T09:46:35.379Z,662.00
2023-01-19T09:47:34.772Z,646.00
2023-01-19T09:48:34.350Z,605.00
2023-01-19T09:49:34.333Z,608.00
2023-01-19T09:50:34.331Z,626.00
2023-01-19T09:51:34.334Z,617.00
2023-01-19T09:52:34.765Z,607.00
2023-01-19T09:53:34.279Z,605.00
2023-01-19T09:54:34.273Z,615.00
2023-01-19T09:55:34.250Z,632.00
2023-01-19T09:56:34.234Z,637.00
2023-01-19T09:57:34.271Z,635.00
2023-01-19T09:58:34.225Z,629.00
2023-01-19T09:59:34.193Z,635.00
2023-01-19T10:00:34.330Z,634.00
2023-01-19T10:01:35.256Z,641.00
2023-01-19T10:02:34.263Z,645.00
2023-01-19T10:03:34.138Z,652.00
2023-01-19T10:04:34.101Z,658.00
2023-01-19T10:05:34.354Z,657.00
2023-01-19T10:06:34.313Z,666.00
2023-01-19T10:07:34.068Z,677.00
2023-01-19T10:08:34.031Z,690.00
2023-01-19T10:09:34.009Z,701.00
2023-01-19T10:10:34.274Z,715.00
2023-01-19T10:11:42.023Z,725.00
2023-01-19T10:12:33.964Z,727.00
2023-01-19T10:13:33.950Z,735.00
2023-01-19T10:14:33.946Z,744.00
2023-01-19T10:15:34.322Z,770.00
2023-01-19T10:16:33.903Z,800.00
2023-01-19T10:17:33.847Z,812.00
2023-01-19T10:18:33.830Z,817.00
2023-01-19T10:19:33.803Z,838.00
2023-01-19T10:20:33.784Z,839.00
2023-01-19T10:21:33.804Z,840.00
2023-01-19T10:22:33.751Z,866.00
2023-01-19T10:23:33.700Z,874.00
2023-01-19T10:24:33.662Z,868.00
2023-01-19T10:25:33.713Z,878.00
2023-01-19T10:26:33.782Z,903.00
2023-01-19T10:27:33.623Z,913.00
2023-01-19T10:28:33.557Z,916.00
2023-01-19T10:29:33.525Z,928.00
2023-01-19T10:30:33.561Z,931.00
2023-01-19T10:31:33.987Z,933.00
2023-01-19T10:32:33.441Z,900.00
2023-01-19T10:33:33.420Z,647.00
2023-01-19T10:34:33.439Z,651.00
2023-01-19T10:35:33.381Z,656.00
2023-01-19T10:36:33.810Z,676.00
2023-01-19T10:37:33.371Z,645.00
2023-01-19T10:38:33.398Z,663.00
2023-01-19T10:39:37.356Z,691.00
2023-01-19T10:40:33.794Z,693.00
2023-01-19T10:41:33.284Z,693.00
2023-01-19T10:42:33.260Z,695.00
2023-01-19T10:43:33.251Z,698.00
2023-01-19T10:44:33.227Z,719.00
2023-01-19T10:45:34.886Z,743.00
2023-01-19T10:46:33.343Z,694.00
2023-01-19T10:47:33.165Z,705.00
2023-01-19T10:48:33.153Z,726.00
2023-01-19T10:49:33.311Z,762.00
2023-01-19T10:50:33.344Z,812.00
2023-01-19T10:51:33.133Z,841.00
2023-01-19T10:52:33.064Z,847.00
2023-01-19T10:53:33.006Z,858.00
2023-01-19T10:54:32.985Z,872.00
2023-01-19T10:55:33.013Z,894.00
2023-01-19T10:56:32.936Z,893.00
2023-01-19T10:57:32.936Z,905.00
2023-01-19T10:58:32.881Z,924.00
2023-01-19T10:59:33.332Z,923.00
2023-01-19T11:00:32.854Z,939.00
2023-01-19T11:01:33.408Z,954.00
2023-01-19T11:02:33.090Z,977.00
2023-01-19T11:03:32.797Z,982.00
2023-01-19T11:04:32.813Z,991.00
2023-01-19T11:05:32.713Z,1009.00
2023-01-19T11:06:32.795Z,1014.00
2023-01-19T11:07:32.668Z,1022.00
2023-01-19T11:08:32.623Z,1042.00
2023-01-19T11:09:32.603Z,1043.00
2023-01-19T11:10:32.573Z,1064.00
2023-01-19T11:11:32.803Z,1060.00
2023-01-19T11:12:32.692Z,1068.00
2023-01-19T11:13:32.544Z,1092.00
2023-01-19T11:14:32.453Z,1081.00
2023-01-19T11:15:32.437Z,1101.00
2023-01-19T11:16:33.378Z,1101.00
2023-01-19T11:17:32.369Z,1095.00
2023-01-19T11:18:32.420Z,1137.00
2023-01-19T11:19:32.304Z,1153.00
2023-01-19T11:20:32.269Z,1132.00
2023-01-19T11:21:32.304Z,1119.00
2023-01-19T11:22:32.213Z,1010.00
2023-01-19T11:23:32.189Z,950.00
2023-01-19T11:24:32.164Z,889.00
2023-01-19T11:25:32.139Z,841.00
2023-01-19T11:26:32.305Z,801.00
2023-01-19T11:27:32.609Z,742.00
2023-01-19T11:28:32.070Z,723.00
2023-01-19T11:29:32.054Z,683.00
2023-01-19T11:30:32.030Z,656.00
2023-01-19T11:31:32.351Z,644.00
2023-01-19T11:32:31.971Z,630.00
2023-01-19T11:33:32.080Z,627.00
2023-01-19T11:34:32.166Z,607.00
2023-01-19T11:35:32.417Z,607.00
2023-01-19T11:36:32.534Z,597.00
2023-01-19T11:37:32.315Z,588.00
2023-01-19T11:38:32.164Z,584.00
2023-01-19T11:39:32.202Z,587.00
2023-01-19T11:40:31.823Z,572.00
2023-01-19T11:41:31.828Z,568.00
2023-01-19T11:42:32.321Z,555.00
2023-01-19T11:43:43.541Z,547.00
2023-01-19T11:44:31.772Z,548.00
2023-01-19T11:45:31.857Z,550.00
2023-01-19T11:46:31.738Z,550.00
2023-01-19T11:47:31.756Z,547.00
2023-01-19T11:48:31.720Z,540.00
2023-01-19T11:49:31.817Z,539.00
2023-01-19T11:50:31.801Z,497.00
2023-01-19T11:51:31.699Z,510.00
2023-01-19T11:52:31.708Z,510.00
2023-01-19T11:53:31.738Z,513.00
2023-01-19T11:54:31.708Z,507.00
2023-01-19T11:55:31.698Z,500.00
2023-01-19T11:56:31.700Z,504.00
2023-01-19T11:57:31.705Z,527.00
2023-01-19T11:58:31.707Z,495.00
2023-01-19T11:59:31.700Z,500.00
2023-01-19T12:00:31.693Z,513.00
2023-01-19T12:01:31.699Z,519.00
2023-01-19T12:02:31.844Z,526.00
2023-01-19T12:03:31.796Z,532.00
2023-01-19T12:04:31.689Z,535.00
2023-01-19T12:05:31.683Z,542.00
2023-01-19T12:06:31.690Z,529.00
2023-01-19T12:07:31.874Z,559.00
2023-01-19T12:08:31.651Z,569.00
2023-01-19T12:09:31.654Z,569.00
2023-01-19T12:10:31.652Z,575.00
2023-01-19T12:11:31.674Z,577.00
2023-01-19T12:12:31.839Z,590.00
2023-01-19T12:13:31.609Z,596.00
2023-01-19T12:14:31.594Z,596.00
2023-01-19T12:15:31.588Z,593.00
2023-01-19T12:16:31.593Z,610.00
2023-01-19T12:17:31.820Z,617.00
2023-01-19T12:18:31.556Z,627.00
2023-01-19T12:19:31.537Z,639.00
2023-01-19T12:20:31.512Z,649.00
2023-01-19T12:21:31.490Z,661.00
2023-01-19T12:22:31.510Z,662.00
2023-01-19T12:23:31.479Z,690.00
2023-01-19T12:24:31.486Z,669.00
2023-01-19T12:25:31.435Z,697.00
2023-01-19T12:26:31.416Z,697.00
2023-01-19T12:27:31.392Z,698.00
2023-01-19T12:28:31.424Z,708.00
2023-01-19T12:29:31.359Z,715.00
2023-01-19T12:30:31.410Z,716.00
2023-01-19T12:31:31.365Z,721.00
2023-01-19T12:32:31.328Z,700.00
2023-01-19T12:33:31.264Z,716.00
2023-01-19T12:34:31.259Z,724.00
2023-01-19T12:35:31.204Z,724.00
2023-01-19T12:36:31.191Z,735.00
2023-01-19T12:37:31.424Z,725.00
2023-01-19T12:38:31.217Z,718.00
2023-01-19T12:39:31.126Z,723.00
2023-01-19T12:40:31.107Z,718.00
2023-01-19T12:41:31.084Z,730.00
2023-01-19T12:42:31.331Z,715.00
2023-01-19T12:43:31.051Z,715.00
2023-01-19T12:44:31.039Z,725.00
2023-01-19T12:45:31.021Z,722.00
2023-01-19T12:46:31.080Z,727.00
2023-01-19T12:47:30.982Z,725.00
2023-01-19T12:48:30.977Z,731.00
2023-01-19T12:49:31.339Z,721.00
2023-01-19T12:50:30.935Z,721.00
2023-01-19T12:51:30.932Z,726.00
2023-01-19T12:52:30.983Z,722.00
2023-01-19T12:53:30.893Z,722.00
2023-01-19T12:54:31.357Z,728.00
2023-01-19T12:55:30.851Z,714.00
2023-01-19T12:56:30.838Z,721.00
2023-01-19T12:57:30.808Z,716.00
2023-01-19T12:58:30.835Z,714.00
2023-01-19T12:59:30.773Z,719.00
2023-01-19T13:00:30.756Z,715.00
2023-01-19T13:01:30.859Z,715.00
2023-01-19T13:02:30.776Z,721.00
2023-01-19T13:03:29.833Z,716.00
2023-01-19T13:04:30.691Z,724.00
2023-01-19T13:05:32.688Z,713.00
2023-01-19T13:06:30.844Z,714.00
2023-01-19T13:07:30.656Z,717.00
2023-01-19T13:08:30.841Z,716.00
2023-01-19T13:09:30.592Z,719.00
2023-01-19T13:10:30.596Z,728.00
2023-01-19T13:11:34.441Z,723.00
2023-01-19T13:12:30.531Z,725.00
2023-01-19T13:13:30.836Z,725.00
2023-01-19T13:14:30.839Z,722.00
2023-01-19T13:15:30.521Z,719.00
2023-01-19T13:16:30.837Z,724.00
2023-01-19T13:17:30.437Z,722.00
2023-01-19T13:18:30.838Z,722.00